Chem Helen — A8MG4 — position and weather

sailwx.info

Track history (hours):
 
Tides and Currents Weather Stations Pressure Air Temp Water Temp Dewpoint Dewpoint Depression Visibility Wind Speed Wind Dir Waves Ship Positions

Chem Helen

Last reported at 2018-May-29 15:15 UTC. Time now 2018-Jun-24 09:17 UTC.
Position N 37°25' E 025°55'.
Warning: this ship's position is 25 days out of date.

; draft 11.5 m.

Type: Ship. MMSI: 636013337.

Date/timePositionNaut miles runAvg speedWind from/ knotsBaromVisibWave heightAir tempDewpointWater temp
2018-May-29 15:15N 37°25' E 025°55'313.0
2018-May-29 15:01N 37°28' E 025°53'  
2018-May-25 22:07N 46°11' E 030°58'210.9
2018-May-25 21:58N 46°13' E 030°57'5 9.3
2018-May-25 21:29N 46°16' E 030°52'5 7.8
2018-May-25 20:51N 46°18' E 030°45'3 8.0
2018-May-25 20:29N 46°19' E 030°41'2 2.2
2018-May-25 19:49N 46°19' E 030°39'0 0.0
2018-May-25 08:45N 46°19' E 030°39'0 0.0
2018-May-24 21:42N 46°19' E 030°39'0 0.1
2018-May-24 17:53N 46°20' E 030°39'0 0.0
2018-May-24 13:59N 46°20' E 030°39'0 0.0
2018-May-24 08:51N 46°20' E 030°39'0 0.0
2018-May-24 00:48N 46°20' E 030°39'0 0.0
2018-May-22 18:46N 46°20' E 030°39'0 0.0
2018-May-22 13:51N 46°20' E 030°39'0 0.3
2018-May-22 13:29N 46°20' E 030°39'0 0.0
2018-May-21 09:47N 46°20' E 030°39'0 0.0
2018-May-21 07:47N 46°20' E 030°39'0 0.0
2018-May-21 06:35N 46°20' E 030°39'0 0.1
2018-May-21 06:29N 46°20' E 030°39'0 0.0
2018-May-21 04:51N 46°20' E 030°39'0 0.0
2018-May-21 02:51N 46°20' E 030°39'0 0.0
2018-May-21 00:42N 46°20' E 030°39'0 0.0
2018-May-20 23:36N 46°20' E 030°39'0 0.0
2018-May-20 22:51N 46°20' E 030°39'0 0.0
2018-May-20 21:45N 46°20' E 030°39'0 0.0
2018-May-20 20:48N 46°20' E 030°39'0 0.0
2018-May-20 19:51N 46°20' E 030°39'0 0.0
2018-May-20 17:45N 46°20' E 030°39'0 0.0
2018-May-20 16:42N 46°20' E 030°39'0 0.0
2018-May-20 15:48N 46°20' E 030°39'0 0.0
2018-May-20 15:30N 46°20' E 030°39'0 0.0
2018-May-20 13:45N 46°20' E 030°39'0 0.0
2018-May-20 12:42N 46°20' E 030°39'0 0.0
2018-May-20 11:48N 46°20' E 030°39'0 0.0
2018-May-20 10:51N 46°20' E 030°39'0 0.0
2018-May-20 09:42N 46°20' E 030°39'0 0.0
2018-May-20 08:48N 46°20' E 030°39'0 0.0
2018-May-20 07:51N 46°20' E 030°39'0 0.0
2018-May-20 06:48N 46°20' E 030°39'0 0.0
2018-May-20 05:51N 46°20' E 030°39'0 0.0
2018-May-20 04:39N 46°20' E 030°39'0 0.2
2018-May-20 03:45N 46°20' E 030°39'1 3.4
2018-May-20 03:30N 46°19' E 030°40'4 5.9
2018-May-20 02:51N 46°19' E 030°45'2 5.3
2018-May-20 02:30N 46°18' E 030°48'3 6.0
2018-May-20 02:00N 46°17' E 030°52'  
Track history (hours):
 
Tides and Currents Weather Stations Pressure Air Temp Water Temp Dewpoint Dewpoint Depression Visibility Wind Speed Wind Dir Waves Ship Positions

Chem Helen

Last reported at 2018-May-29 15:15 UTC. Time now 2018-Jun-24 09:17 UTC.
Position N 37°25' E 025°55'.
Warning: this ship's position is 25 days out of date.

; draft 11.5 m.

Type: Ship. MMSI: 636013337.

Date/timePositionNaut miles runAvg speedWind from/ knotsBaromVisibWave heightAir tempDewpointWater temp
2018-May-29 15:15N 37°25' E 025°55'313.0
2018-May-29 15:01N 37°28' E 025°53'  
2018-May-25 22:07N 46°11' E 030°58'210.9
2018-May-25 21:58N 46°13' E 030°57'5 9.3
2018-May-25 21:29N 46°16' E 030°52'5 7.8
2018-May-25 20:51N 46°18' E 030°45'3 8.0
2018-May-25 20:29N 46°19' E 030°41'2 2.2
2018-May-25 19:49N 46°19' E 030°39'0 0.0
2018-May-25 08:45N 46°19' E 030°39'0 0.0
2018-May-24 21:42N 46°19' E 030°39'0 0.1
2018-May-24 17:53N 46°20' E 030°39'0 0.0
2018-May-24 13:59N 46°20' E 030°39'0 0.0
2018-May-24 08:51N 46°20' E 030°39'0 0.0
2018-May-24 00:48N 46°20' E 030°39'0 0.0
2018-May-22 18:46N 46°20' E 030°39'0 0.0
2018-May-22 13:51N 46°20' E 030°39'0 0.3
2018-May-22 13:29N 46°20' E 030°39'0 0.0
2018-May-21 09:47N 46°20' E 030°39'0 0.0
2018-May-21 07:47N 46°20' E 030°39'0 0.0
2018-May-21 06:35N 46°20' E 030°39'0 0.1
2018-May-21 06:29N 46°20' E 030°39'0 0.0
2018-May-21 04:51N 46°20' E 030°39'0 0.0
2018-May-21 02:51N 46°20' E 030°39'0 0.0
2018-May-21 00:42N 46°20' E 030°39'0 0.0
2018-May-20 23:36N 46°20' E 030°39'0 0.0
2018-May-20 22:51N 46°20' E 030°39'0 0.0
2018-May-20 21:45N 46°20' E 030°39'0 0.0
2018-May-20 20:48N 46°20' E 030°39'0 0.0
2018-May-20 19:51N 46°20' E 030°39'0 0.0
2018-May-20 17:45N 46°20' E 030°39'0 0.0
2018-May-20 16:42N 46°20' E 030°39'0 0.0
2018-May-20 15:48N 46°20' E 030°39'0 0.0
2018-May-20 15:30N 46°20' E 030°39'0 0.0
2018-May-20 13:45N 46°20' E 030°39'0 0.0
2018-May-20 12:42N 46°20' E 030°39'0 0.0
2018-May-20 11:48N 46°20' E 030°39'0 0.0
2018-May-20 10:51N 46°20' E 030°39'0 0.0
2018-May-20 09:42N 46°20' E 030°39'0 0.0
2018-May-20 08:48N 46°20' E 030°39'0 0.0
2018-May-20 07:51N 46°20' E 030°39'0 0.0
2018-May-20 06:48N 46°20' E 030°39'0 0.0
2018-May-20 05:51N 46°20' E 030°39'0 0.0
2018-May-20 04:39N 46°20' E 030°39'0 0.2
2018-May-20 03:45N 46°20' E 030°39'1 3.4
2018-May-20 03:30N 46°19' E 030°40'4 5.9
2018-May-20 02:51N 46°19' E 030°45'2 5.3
2018-May-20 02:30N 46°18' E 030°48'3 6.0
2018-May-20 02:00N 46°17' E 030°52'  

Dump ship's entire track history